sensor_id;sensor_type;location;lat;lon;timestamp;P1;durP1;ratioP1;P2;durP2;ratioP2
47804;SDS011;33568;45.286;9.900;2022-11-25T00:01:12;42.10;;;28.90;;
47804;SDS011;33568;45.286;9.900;2022-11-25T00:03:41;36.20;;;25.80;;
47804;SDS011;33568;45.286;9.900;2022-11-25T00:06:13;31.80;;;25.23;;
47804;SDS011;33568;45.286;9.900;2022-11-25T00:08:42;34.50;;;24.83;;
47804;SDS011;33568;45.286;9.900;2022-11-25T00:11:09;33.60;;;23.88;;
47804;SDS011;33568;45.286;9.900;2022-11-25T00:13:36;35.28;;;24.65;;
47804;SDS011;33568;45.286;9.900;2022-11-25T00:16:04;38.72;;;23.83;;
47804;SDS011;33568;45.286;9.900;2022-11-25T00:18:35;29.17;;;24.42;;
47804;SDS011;33568;45.286;9.900;2022-11-25T00:21:09;29.45;;;22.33;;
47804;SDS011;33568;45.286;9.900;2022-11-25T00:23:38;30.00;;;24.80;;
47804;SDS011;33568;45.286;9.900;2022-11-25T00:26:08;33.83;;;26.00;;
47804;SDS011;33568;45.286;9.900;2022-11-25T00:28:37;33.05;;;24.27;;
47804;SDS011;33568;45.286;9.900;2022-11-25T00:31:08;31.83;;;23.98;;
47804;SDS011;33568;45.286;9.900;2022-11-25T00:33:40;29.25;;;21.75;;
47804;SDS011;33568;45.286;9.900;2022-11-25T00:36:14;29.42;;;21.70;;
47804;SDS011;33568;45.286;9.900;2022-11-25T00:38:41;31.38;;;22.77;;
47804;SDS011;33568;45.286;9.900;2022-11-25T00:41:08;26.98;;;22.30;;
47804;SDS011;33568;45.286;9.900;2022-11-25T00:43:53;30.67;;;23.85;;
47804;SDS011;33568;45.286;9.900;2022-11-25T00:46:38;29.88;;;22.75;;
47804;SDS011;33568;45.286;9.900;2022-11-25T00:49:05;33.28;;;23.77;;
47804;SDS011;33568;45.286;9.900;2022-11-25T00:51:32;31.23;;;23.38;;
47804;SDS011;33568;45.286;9.900;2022-11-25T00:53:58;33.53;;;25.67;;
47804;SDS011;33568;45.286;9.900;2022-11-25T00:58:51;35.05;;;23.85;;
47804;SDS011;33568;45.286;9.900;2022-11-25T01:03:47;33.40;;;23.50;;
47804;SDS011;33568;45.286;9.900;2022-11-25T01:06:14;30.60;;;21.17;;
47804;SDS011;33568;45.286;9.900;2022-11-25T01:08:40;31.38;;;22.83;;
47804;SDS011;33568;45.286;9.900;2022-11-25T01:11:09;29.15;;;22.77;;
47804;SDS011;33568;45.286;9.900;2022-11-25T01:13:38;39.15;;;23.17;;
47804;SDS011;33568;45.286;9.900;2022-11-25T01:16:05;29.27;;;21.95;;
47804;SDS011;33568;45.286;9.900;2022-11-25T01:18:34;27.98;;;21.73;;
47804;SDS011;33568;45.286;9.900;2022-11-25T01:23:40;29.13;;;22.40;;
47804;SDS011;33568;45.286;9.900;2022-11-25T01:26:11;30.45;;;23.95;;
47804;SDS011;33568;45.286;9.900;2022-11-25T01:28:39;30.00;;;24.30;;
47804;SDS011;33568;45.286;9.900;2022-11-25T01:31:14;31.17;;;24.50;;
47804;SDS011;33568;45.286;9.900;2022-11-25T01:33:42;35.13;;;26.23;;
47804;SDS011;33568;45.286;9.900;2022-11-25T01:36:14;32.72;;;25.20;;
47804;SDS011;33568;45.286;9.900;2022-11-25T01:38:42;30.73;;;24.30;;
47804;SDS011;33568;45.286;9.900;2022-11-25T01:41:11;34.38;;;26.45;;
47804;SDS011;33568;45.286;9.900;2022-11-25T01:43:39;34.25;;;26.33;;
47804;SDS011;33568;45.286;9.900;2022-11-25T01:51:29;31.95;;;24.42;;
47804;SDS011;33568;45.286;9.900;2022-11-25T01:54:00;30.88;;;24.92;;
47804;SDS011;33568;45.286;9.900;2022-11-25T01:56:29;35.33;;;25.35;;
47804;SDS011;33568;45.286;9.900;2022-11-25T01:59:01;32.58;;;25.10;;
47804;SDS011;33568;45.286;9.900;2022-11-25T02:01:28;35.35;;;25.10;;
47804;SDS011;33568;45.286;9.900;2022-11-25T02:03:55;32.78;;;25.10;;
47804;SDS011;33568;45.286;9.900;2022-11-25T02:06:38;32.55;;;24.50;;
47804;SDS011;33568;45.286;9.900;2022-11-25T02:09:11;32.60;;;24.35;;
47804;SDS011;33568;45.286;9.900;2022-11-25T02:11:40;33.35;;;25.30;;
47804;SDS011;33568;45.286;9.900;2022-11-25T02:14:09;34.00;;;25.75;;
47804;SDS011;33568;45.286;9.900;2022-11-25T02:16:38;36.40;;;25.30;;
47804;SDS011;33568;45.286;9.900;2022-11-25T02:19:10;35.53;;;25.23;;
47804;SDS011;33568;45.286;9.900;2022-11-25T02:21:58;33.38;;;25.17;;
47804;SDS011;33568;45.286;9.900;2022-11-25T02:24:33;31.55;;;26.50;;
47804;SDS011;33568;45.286;9.900;2022-11-25T02:27:12;31.30;;;26.35;;
47804;SDS011;33568;45.286;9.900;2022-11-25T02:29:41;31.98;;;24.35;;
47804;SDS011;33568;45.286;9.900;2022-11-25T02:32:09;36.22;;;26.23;;
47804;SDS011;33568;45.286;9.900;2022-11-25T02:37:10;32.58;;;25.70;;
47804;SDS011;33568;45.286;9.900;2022-11-25T02:42:03;33.03;;;26.00;;
47804;SDS011;33568;45.286;9.900;2022-11-25T02:44:30;38.35;;;26.42;;
47804;SDS011;33568;45.286;9.900;2022-11-25T02:46:56;36.03;;;25.73;;
47804;SDS011;33568;45.286;9.900;2022-11-25T02:51:50;32.78;;;24.90;;
47804;SDS011;33568;45.286;9.900;2022-11-25T02:54:17;30.83;;;24.90;;
47804;SDS011;33568;45.286;9.900;2022-11-25T02:56:43;36.47;;;24.90;;
47804;SDS011;33568;45.286;9.900;2022-11-25T03:01:36;36.20;;;26.07;;
47804;SDS011;33568;45.286;9.900;2022-11-25T03:04:05;32.50;;;26.60;;
47804;SDS011;33568;45.286;9.900;2022-11-25T03:08:58;36.45;;;27.42;;
47804;SDS011;33568;45.286;9.900;2022-11-25T03:11:26;36.38;;;26.15;;
47804;SDS011;33568;45.286;9.900;2022-11-25T03:14:12;34.65;;;25.73;;
47804;SDS011;33568;45.286;9.900;2022-11-25T03:16:38;33.90;;;27.77;;
47804;SDS011;33568;45.286;9.900;2022-11-25T03:19:05;34.38;;;27.08;;
47804;SDS011;33568;45.286;9.900;2022-11-25T03:21:31;39.28;;;26.88;;
47804;SDS011;33568;45.286;9.900;2022-11-25T03:23:58;37.22;;;28.05;;
47804;SDS011;33568;45.286;9.900;2022-11-25T03:28:51;34.13;;;25.60;;
47804;SDS011;33568;45.286;9.900;2022-11-25T03:31:18;34.53;;;25.52;;
47804;SDS011;33568;45.286;9.900;2022-11-25T03:33:44;31.25;;;24.02;;
47804;SDS011;33568;45.286;9.900;2022-11-25T03:36:11;32.92;;;25.25;;
47804;SDS011;33568;45.286;9.900;2022-11-25T03:38:37;31.23;;;26.63;;
47804;SDS011;33568;45.286;9.900;2022-11-25T03:41:03;34.05;;;26.15;;
47804;SDS011;33568;45.286;9.900;2022-11-25T03:43:31;31.13;;;26.95;;
47804;SDS011;33568;45.286;9.900;2022-11-25T03:45:58;37.58;;;28.15;;
47804;SDS011;33568;45.286;9.900;2022-11-25T03:50:51;33.15;;;26.65;;
47804;SDS011;33568;45.286;9.900;2022-11-25T03:53:17;39.25;;;28.25;;
47804;SDS011;33568;45.286;9.900;2022-11-25T03:58:12;43.17;;;28.13;;
47804;SDS011;33568;45.286;9.900;2022-11-25T04:00:38;38.17;;;29.40;;
47804;SDS011;33568;45.286;9.900;2022-11-25T04:05:32;45.03;;;30.17;;
47804;SDS011;33568;45.286;9.900;2022-11-25T04:08:03;41.38;;;31.38;;
47804;SDS011;33568;45.286;9.900;2022-11-25T04:10:31;39.80;;;32.25;;
47804;SDS011;33568;45.286;9.900;2022-11-25T04:15:32;48.22;;;32.85;;
47804;SDS011;33568;45.286;9.900;2022-11-25T04:17:59;42.85;;;33.40;;
47804;SDS011;33568;45.286;9.900;2022-11-25T04:22:58;43.15;;;34.60;;
47804;SDS011;33568;45.286;9.900;2022-11-25T04:25:26;44.22;;;34.83;;
47804;SDS011;33568;45.286;9.900;2022-11-25T04:27:53;49.40;;;37.08;;
47804;SDS011;33568;45.286;9.900;2022-11-25T04:30:25;53.17;;;38.63;;
47804;SDS011;33568;45.286;9.900;2022-11-25T04:32:53;46.78;;;38.15;;
47804;SDS011;33568;45.286;9.900;2022-11-25T04:35:20;52.33;;;39.40;;
47804;SDS011;33568;45.286;9.900;2022-11-25T04:37:50;50.20;;;40.25;;
47804;SDS011;33568;45.286;9.900;2022-11-25T04:42:48;57.92;;;39.15;;
47804;SDS011;33568;45.286;9.900;2022-11-25T04:45:18;52.15;;;40.60;;
47804;SDS011;33568;45.286;9.900;2022-11-25T04:47:46;55.03;;;41.40;;
47804;SDS011;33568;45.286;9.900;2022-11-25T04:53:10;50.25;;;41.13;;
47804;SDS011;33568;45.286;9.900;2022-11-25T04:55:38;51.95;;;40.17;;
47804;SDS011;33568;45.286;9.900;2022-11-25T04:58:12;50.60;;;40.70;;
47804;SDS011;33568;45.286;9.900;2022-11-25T05:00:40;51.92;;;39.67;;
47804;SDS011;33568;45.286;9.900;2022-11-25T05:03:08;62.85;;;45.30;;
47804;SDS011;33568;45.286;9.900;2022-11-25T05:05:37;79.32;;;50.92;;
47804;SDS011;33568;45.286;9.900;2022-11-25T05:08:04;67.88;;;50.13;;
47804;SDS011;33568;45.286;9.900;2022-11-25T05:10:31;61.47;;;48.22;;
47804;SDS011;33568;45.286;9.900;2022-11-25T05:12:58;60.22;;;45.22;;
47804;SDS011;33568;45.286;9.900;2022-11-25T05:15:24;61.33;;;45.40;;
47804;SDS011;33568;45.286;9.900;2022-11-25T05:17:52;62.47;;;46.15;;
47804;SDS011;33568;45.286;9.900;2022-11-25T05:20:31;71.00;;;48.42;;
47804;SDS011;33568;45.286;9.900;2022-11-25T05:22:58;70.68;;;48.42;;
47804;SDS011;33568;45.286;9.900;2022-11-25T05:25:24;66.18;;;48.63;;
47804;SDS011;33568;45.286;9.900;2022-11-25T05:28:10;59.20;;;45.13;;
47804;SDS011;33568;45.286;9.900;2022-11-25T05:30:36;55.95;;;44.75;;
47804;SDS011;33568;45.286;9.900;2022-11-25T05:33:04;55.10;;;43.95;;
47804;SDS011;33568;45.286;9.900;2022-11-25T05:35:30;54.28;;;42.67;;
47804;SDS011;33568;45.286;9.900;2022-11-25T05:37:56;49.25;;;42.22;;
47804;SDS011;33568;45.286;9.900;2022-11-25T05:40:25;60.78;;;46.05;;
47804;SDS011;33568;45.286;9.900;2022-11-25T05:42:59;55.75;;;44.72;;
47804;SDS011;33568;45.286;9.900;2022-11-25T05:45:28;59.53;;;41.45;;
47804;SDS011;33568;45.286;9.900;2022-11-25T05:47:55;56.05;;;41.90;;
47804;SDS011;33568;45.286;9.900;2022-11-25T05:50:24;57.25;;;45.45;;
47804;SDS011;33568;45.286;9.900;2022-11-25T05:53:10;54.03;;;44.17;;
47804;SDS011;33568;45.286;9.900;2022-11-25T05:55:36;61.33;;;46.03;;
47804;SDS011;33568;45.286;9.900;2022-11-25T05:58:08;57.15;;;46.80;;
47804;SDS011;33568;45.286;9.900;2022-11-25T06:00:34;57.50;;;44.67;;
47804;SDS011;33568;45.286;9.900;2022-11-25T06:03:07;56.80;;;42.78;;
47804;SDS011;33568;45.286;9.900;2022-11-25T06:05:34;50.42;;;42.10;;
47804;SDS011;33568;45.286;9.900;2022-11-25T06:08:00;54.55;;;40.38;;
47804;SDS011;33568;45.286;9.900;2022-11-25T06:12:53;49.03;;;38.17;;
47804;SDS011;33568;45.286;9.900;2022-11-25T06:15:19;46.20;;;38.50;;
47804;SDS011;33568;45.286;9.900;2022-11-25T06:17:48;49.92;;;38.63;;
47804;SDS011;33568;45.286;9.900;2022-11-25T06:20:20;52.90;;;40.90;;
47804;SDS011;33568;45.286;9.900;2022-11-25T06:22:46;64.40;;;42.03;;
47804;SDS011;33568;45.286;9.900;2022-11-25T06:25:17;51.67;;;43.40;;
47804;SDS011;33568;45.286;9.900;2022-11-25T06:27:45;52.92;;;42.35;;
47804;SDS011;33568;45.286;9.900;2022-11-25T06:30:12;56.40;;;43.03;;
47804;SDS011;33568;45.286;9.900;2022-11-25T06:32:45;50.42;;;39.80;;
47804;SDS011;33568;45.286;9.900;2022-11-25T06:35:20;51.15;;;38.53;;
47804;SDS011;33568;45.286;9.900;2022-11-25T06:37:53;47.80;;;39.47;;
47804;SDS011;33568;45.286;9.900;2022-11-25T06:40:20;58.78;;;44.83;;
47804;SDS011;33568;45.286;9.900;2022-11-25T06:42:46;56.30;;;45.05;;
47804;SDS011;33568;45.286;9.900;2022-11-25T06:45:12;51.85;;;41.78;;
47804;SDS011;33568;45.286;9.900;2022-11-25T06:47:39;57.40;;;40.90;;
47804;SDS011;33568;45.286;9.900;2022-11-25T06:52:32;54.42;;;40.97;;
47804;SDS011;33568;45.286;9.900;2022-11-25T06:54:58;49.85;;;38.05;;
47804;SDS011;33568;45.286;9.900;2022-11-25T06:57:24;47.33;;;37.30;;
47804;SDS011;33568;45.286;9.900;2022-11-25T06:59:51;45.70;;;39.08;;
47804;SDS011;33568;45.286;9.900;2022-11-25T07:02:17;49.03;;;34.80;;
47804;SDS011;33568;45.286;9.900;2022-11-25T07:04:44;47.22;;;37.95;;
47804;SDS011;33568;45.286;9.900;2022-11-25T07:07:10;42.00;;;36.25;;
47804;SDS011;33568;45.286;9.900;2022-11-25T07:09:36;40.83;;;36.38;;
47804;SDS011;33568;45.286;9.900;2022-11-25T07:12:05;60.47;;;47.42;;
47804;SDS011;33568;45.286;9.900;2022-11-25T07:14:32;68.97;;;47.42;;
47804;SDS011;33568;45.286;9.900;2022-11-25T07:16:58;50.92;;;42.95;;
47804;SDS011;33568;45.286;9.900;2022-11-25T07:19:25;42.17;;;37.25;;
47804;SDS011;33568;45.286;9.900;2022-11-25T07:21:51;42.10;;;33.30;;
47804;SDS011;33568;45.286;9.900;2022-11-25T07:24:17;34.55;;;30.77;;
47804;SDS011;33568;45.286;9.900;2022-11-25T07:26:44;37.75;;;32.67;;
47804;SDS011;33568;45.286;9.900;2022-11-25T07:29:12;38.97;;;34.85;;
47804;SDS011;33568;45.286;9.900;2022-11-25T07:31:43;41.90;;;34.42;;
47804;SDS011;33568;45.286;9.900;2022-11-25T07:34:11;45.25;;;37.38;;
47804;SDS011;33568;45.286;9.900;2022-11-25T07:36:38;44.15;;;37.38;;
47804;SDS011;33568;45.286;9.900;2022-11-25T07:39:06;47.35;;;39.35;;
47804;SDS011;33568;45.286;9.900;2022-11-25T07:41:36;57.20;;;42.42;;
47804;SDS011;33568;45.286;9.900;2022-11-25T07:46:44;56.92;;;40.03;;
47804;SDS011;33568;45.286;9.900;2022-11-25T07:49:17;52.85;;;41.90;;
47804;SDS011;33568;45.286;9.900;2022-11-25T07:51:47;50.95;;;42.22;;
47804;SDS011;33568;45.286;9.900;2022-11-25T07:54:14;55.70;;;42.92;;
47804;SDS011;33568;45.286;9.900;2022-11-25T07:56:41;50.28;;;41.65;;
47804;SDS011;33568;45.286;9.900;2022-11-25T07:59:13;52.58;;;43.88;;
47804;SDS011;33568;45.286;9.900;2022-11-25T08:01:41;57.45;;;44.90;;
47804;SDS011;33568;45.286;9.900;2022-11-25T08:04:09;56.88;;;45.38;;
47804;SDS011;33568;45.286;9.900;2022-11-25T08:06:41;59.20;;;46.92;;
47804;SDS011;33568;45.286;9.900;2022-11-25T08:09:09;57.13;;;46.67;;
47804;SDS011;33568;45.286;9.900;2022-11-25T08:11:37;55.28;;;47.03;;
47804;SDS011;33568;45.286;9.900;2022-11-25T08:14:04;64.20;;;48.88;;
47804;SDS011;33568;45.286;9.900;2022-11-25T08:16:31;53.83;;;42.47;;
47804;SDS011;33568;45.286;9.900;2022-11-25T08:18:58;54.95;;;44.72;;
47804;SDS011;33568;45.286;9.900;2022-11-25T08:21:26;56.15;;;47.60;;
47804;SDS011;33568;45.286;9.900;2022-11-25T08:23:53;62.40;;;49.28;;
47804;SDS011;33568;45.286;9.900;2022-11-25T08:26:21;62.15;;;49.08;;
47804;SDS011;33568;45.286;9.900;2022-11-25T08:28:51;54.28;;;46.45;;
47804;SDS011;33568;45.286;9.900;2022-11-25T08:31:20;54.90;;;47.60;;
47804;SDS011;33568;45.286;9.900;2022-11-25T08:33:48;59.47;;;48.70;;
47804;SDS011;33568;45.286;9.900;2022-11-25T08:36:16;60.05;;;49.10;;
47804;SDS011;33568;45.286;9.900;2022-11-25T08:38:43;58.45;;;51.38;;
47804;SDS011;33568;45.286;9.900;2022-11-25T08:41:18;60.78;;;49.28;;
47804;SDS011;33568;45.286;9.900;2022-11-25T08:43:47;60.75;;;51.13;;
47804;SDS011;33568;45.286;9.900;2022-11-25T08:48:42;66.65;;;52.55;;
47804;SDS011;33568;45.286;9.900;2022-11-25T08:51:10;58.47;;;51.45;;
47804;SDS011;33568;45.286;9.900;2022-11-25T08:53:41;56.28;;;50.13;;
47804;SDS011;33568;45.286;9.900;2022-11-25T08:56:08;56.00;;;48.80;;
47804;SDS011;33568;45.286;9.900;2022-11-25T08:58:36;58.17;;;50.70;;
47804;SDS011;33568;45.286;9.900;2022-11-25T09:01:03;57.53;;;49.97;;
47804;SDS011;33568;45.286;9.900;2022-11-25T09:03:32;57.03;;;48.70;;
47804;SDS011;33568;45.286;9.900;2022-11-25T09:06:03;54.45;;;48.50;;
47804;SDS011;33568;45.286;9.900;2022-11-25T09:08:30;55.35;;;47.33;;
47804;SDS011;33568;45.286;9.900;2022-11-25T09:13:24;63.28;;;48.20;;
47804;SDS011;33568;45.286;9.900;2022-11-25T09:18:16;49.90;;;42.05;;
47804;SDS011;33568;45.286;9.900;2022-11-25T09:20:45;47.00;;;40.53;;
47804;SDS011;33568;45.286;9.900;2022-11-25T09:23:12;45.63;;;38.85;;
47804;SDS011;33568;45.286;9.900;2022-11-25T09:25:38;47.35;;;38.50;;
47804;SDS011;33568;45.286;9.900;2022-11-25T09:28:05;41.70;;;37.35;;
47804;SDS011;33568;45.286;9.900;2022-11-25T09:30:31;41.85;;;33.90;;
47804;SDS011;33568;45.286;9.900;2022-11-25T09:32:58;34.05;;;29.75;;
47804;SDS011;33568;45.286;9.900;2022-11-25T09:35:24;38.35;;;27.40;;
47804;SDS011;33568;45.286;9.900;2022-11-25T09:37:51;32.65;;;26.00;;
47804;SDS011;33568;45.286;9.900;2022-11-25T09:49:11;33.28;;;24.92;;
47804;SDS011;33568;45.286;9.900;2022-11-25T10:02:27;26.05;;;22.73;;
47804;SDS011;33568;45.286;9.900;2022-11-25T10:05:05;27.23;;;23.52;;
47804;SDS011;33568;45.286;9.900;2022-11-25T10:07:39;25.20;;;22.70;;
47804;SDS011;33568;45.286;9.900;2022-11-25T10:10:13;28.08;;;22.23;;
47804;SDS011;33568;45.286;9.900;2022-11-25T10:12:54;24.30;;;21.80;;
47804;SDS011;33568;45.286;9.900;2022-11-25T10:15:24;23.02;;;20.63;;
47804;SDS011;33568;45.286;9.900;2022-11-25T10:17:57;24.25;;;21.67;;
47804;SDS011;33568;45.286;9.900;2022-11-25T10:20:34;23.85;;;21.20;;
47804;SDS011;33568;45.286;9.900;2022-11-25T10:23:03;23.95;;;21.65;;
47804;SDS011;33568;45.286;9.900;2022-11-25T10:25:33;23.80;;;21.40;;
47804;SDS011;33568;45.286;9.900;2022-11-25T10:28:11;24.73;;;21.30;;
47804;SDS011;33568;45.286;9.900;2022-11-25T10:33:32;23.00;;;20.15;;
47804;SDS011;33568;45.286;9.900;2022-11-25T10:38:54;24.67;;;20.48;;
47804;SDS011;33568;45.286;9.900;2022-11-25T10:41:44;22.48;;;20.25;;
47804;SDS011;33568;45.286;9.900;2022-11-25T10:44:18;22.63;;;19.40;;
47804;SDS011;33568;45.286;9.900;2022-11-25T10:47:00;23.17;;;20.88;;
47804;SDS011;33568;45.286;9.900;2022-11-25T10:52:41;22.92;;;20.52;;
47804;SDS011;33568;45.286;9.900;2022-11-25T10:55:21;22.25;;;19.92;;
47804;SDS011;33568;45.286;9.900;2022-11-25T10:57:53;30.00;;;23.15;;
47804;SDS011;33568;45.286;9.900;2022-11-25T11:00:24;24.10;;;21.35;;
47804;SDS011;33568;45.286;9.900;2022-11-25T11:02:56;24.53;;;22.03;;
47804;SDS011;33568;45.286;9.900;2022-11-25T11:05:26;23.27;;;20.98;;
47804;SDS011;33568;45.286;9.900;2022-11-25T11:10:37;23.92;;;21.42;;
47804;SDS011;33568;45.286;9.900;2022-11-25T11:15:31;24.00;;;21.58;;
47804;SDS011;33568;45.286;9.900;2022-11-25T11:18:20;24.90;;;22.33;;
47804;SDS011;33568;45.286;9.900;2022-11-25T11:20:56;25.17;;;22.23;;
47804;SDS011;33568;45.286;9.900;2022-11-25T11:23:25;24.98;;;22.38;;
47804;SDS011;33568;45.286;9.900;2022-11-25T11:26:00;24.92;;;22.17;;
47804;SDS011;33568;45.286;9.900;2022-11-25T11:31:22;24.77;;;20.77;;
47804;SDS011;33568;45.286;9.900;2022-11-25T11:34:06;66.88;;;55.00;;
47804;SDS011;33568;45.286;9.900;2022-11-25T11:45:04;23.98;;;21.58;;
47804;SDS011;33568;45.286;9.900;2022-11-25T11:50:30;24.02;;;21.13;;
47804;SDS011;33568;45.286;9.900;2022-11-25T11:56:06;24.17;;;21.63;;
47804;SDS011;33568;45.286;9.900;2022-11-25T12:04:10;27.23;;;24.40;;
47804;SDS011;33568;45.286;9.900;2022-11-25T12:07:04;27.13;;;24.08;;
47804;SDS011;33568;45.286;9.900;2022-11-25T12:09:37;27.88;;;25.08;;
47804;SDS011;33568;45.286;9.900;2022-11-25T12:12:14;32.30;;;27.05;;
47804;SDS011;33568;45.286;9.900;2022-11-25T12:17:17;30.88;;;27.30;;
47804;SDS011;33568;45.286;9.900;2022-11-25T12:25:19;38.40;;;30.67;;
47804;SDS011;33568;45.286;9.900;2022-11-25T12:27:52;40.13;;;32.83;;
47804;SDS011;33568;45.286;9.900;2022-11-25T12:30:45;34.83;;;30.17;;
47804;SDS011;33568;45.286;9.900;2022-11-25T12:33:45;34.20;;;30.63;;
47804;SDS011;33568;45.286;9.900;2022-11-25T12:36:39;47.53;;;37.42;;
47804;SDS011;33568;45.286;9.900;2022-11-25T12:42:00;37.13;;;31.50;;
47804;SDS011;33568;45.286;9.900;2022-11-25T12:47:14;37.40;;;31.35;;
47804;SDS011;33568;45.286;9.900;2022-11-25T12:49:41;37.28;;;29.95;;
47804;SDS011;33568;45.286;9.900;2022-11-25T13:00:21;36.33;;;31.55;;
47804;SDS011;33568;45.286;9.900;2022-11-25T13:17:19;40.63;;;33.28;;
47804;SDS011;33568;45.286;9.900;2022-11-25T13:19:47;38.92;;;33.90;;
47804;SDS011;33568;45.286;9.900;2022-11-25T13:22:33;41.97;;;34.65;;
47804;SDS011;33568;45.286;9.900;2022-11-25T13:24:59;39.80;;;34.65;;
47804;SDS011;33568;45.286;9.900;2022-11-25T13:32:56;39.42;;;32.33;;
47804;SDS011;33568;45.286;9.900;2022-11-25T13:40:59;44.33;;;36.30;;
47804;SDS011;33568;45.286;9.900;2022-11-25T13:43:27;42.38;;;37.67;;
47804;SDS011;33568;45.286;9.900;2022-11-25T13:48:29;42.28;;;36.97;;
47804;SDS011;33568;45.286;9.900;2022-11-25T13:51:13;54.72;;;44.10;;
47804;SDS011;33568;45.286;9.900;2022-11-25T13:53:53;49.67;;;38.65;;
47804;SDS011;33568;45.286;9.900;2022-11-25T13:56:27;46.28;;;37.85;;
47804;SDS011;33568;45.286;9.900;2022-11-25T14:01:37;45.22;;;37.75;;
47804;SDS011;33568;45.286;9.900;2022-11-25T14:04:11;49.92;;;39.90;;
47804;SDS011;33568;45.286;9.900;2022-11-25T14:09:22;51.15;;;41.03;;
47804;SDS011;33568;45.286;9.900;2022-11-25T14:12:02;46.65;;;36.67;;
47804;SDS011;33568;45.286;9.900;2022-11-25T14:20:32;47.40;;;40.58;;
47804;SDS011;33568;45.286;9.900;2022-11-25T14:26:15;48.13;;;39.00;;
47804;SDS011;33568;45.286;9.900;2022-11-25T14:32:06;50.38;;;41.20;;
47804;SDS011;33568;45.286;9.900;2022-11-25T14:37:19;57.10;;;46.95;;
47804;SDS011;33568;45.286;9.900;2022-11-25T14:43:22;134.13;;;93.60;;
47804;SDS011;33568;45.286;9.900;2022-11-25T14:46:09;107.82;;;84.78;;
47804;SDS011;33568;45.286;9.900;2022-11-25T14:48:41;59.17;;;47.55;;
47804;SDS011;33568;45.286;9.900;2022-11-25T14:51:09;66.03;;;52.00;;
47804;SDS011;33568;45.286;9.900;2022-11-25T14:53:45;64.15;;;50.53;;
47804;SDS011;33568;45.286;9.900;2022-11-25T14:56:14;51.33;;;44.25;;
47804;SDS011;33568;45.286;9.900;2022-11-25T15:01:28;49.90;;;43.05;;
47804;SDS011;33568;45.286;9.900;2022-11-25T15:06:39;47.15;;;42.08;;
47804;SDS011;33568;45.286;9.900;2022-11-25T15:11:56;56.35;;;45.63;;
47804;SDS011;33568;45.286;9.900;2022-11-25T15:16:56;50.80;;;45.33;;
47804;SDS011;33568;45.286;9.900;2022-11-25T15:19:24;56.55;;;44.80;;
47804;SDS011;33568;45.286;9.900;2022-11-25T15:21:57;51.00;;;45.25;;
47804;SDS011;33568;45.286;9.900;2022-11-25T15:24:30;61.25;;;53.03;;
47804;SDS011;33568;45.286;9.900;2022-11-25T15:27:18;68.20;;;54.45;;
47804;SDS011;33568;45.286;9.900;2022-11-25T15:29:49;63.83;;;50.47;;
47804;SDS011;33568;45.286;9.900;2022-11-25T15:32:17;56.83;;;49.83;;
47804;SDS011;33568;45.286;9.900;2022-11-25T15:34:50;58.00;;;48.95;;
47804;SDS011;33568;45.286;9.900;2022-11-25T15:37:19;55.35;;;48.40;;
47804;SDS011;33568;45.286;9.900;2022-11-25T15:39:45;53.55;;;47.28;;
47804;SDS011;33568;45.286;9.900;2022-11-25T15:44:48;54.63;;;44.88;;
47804;SDS011;33568;45.286;9.900;2022-11-25T15:47:20;63.65;;;50.38;;
47804;SDS011;33568;45.286;9.900;2022-11-25T15:49:52;56.72;;;50.53;;
47804;SDS011;33568;45.286;9.900;2022-11-25T15:52:33;63.67;;;50.72;;
47804;SDS011;33568;45.286;9.900;2022-11-25T15:55:03;59.65;;;51.00;;
47804;SDS011;33568;45.286;9.900;2022-11-25T15:57:47;65.70;;;51.03;;
47804;SDS011;33568;45.286;9.900;2022-11-25T16:00:16;57.70;;;48.60;;
47804;SDS011;33568;45.286;9.900;2022-11-25T16:02:52;58.15;;;48.33;;
47804;SDS011;33568;45.286;9.900;2022-11-25T16:05:26;59.33;;;49.80;;
47804;SDS011;33568;45.286;9.900;2022-11-25T16:07:58;57.92;;;51.60;;
47804;SDS011;33568;45.286;9.900;2022-11-25T16:10:50;58.90;;;50.10;;
47804;SDS011;33568;45.286;9.900;2022-11-25T16:18:21;61.55;;;51.83;;
47804;SDS011;33568;45.286;9.900;2022-11-25T16:20:55;59.83;;;50.17;;
47804;SDS011;33568;45.286;9.900;2022-11-25T16:23:25;63.70;;;53.35;;
47804;SDS011;33568;45.286;9.900;2022-11-25T16:25:56;64.22;;;52.10;;
47804;SDS011;33568;45.286;9.900;2022-11-25T16:28:27;60.75;;;51.72;;
47804;SDS011;33568;45.286;9.900;2022-11-25T16:30:53;68.78;;;58.45;;
47804;SDS011;33568;45.286;9.900;2022-11-25T16:33:23;66.18;;;56.78;;
47804;SDS011;33568;45.286;9.900;2022-11-25T16:35:50;70.28;;;56.42;;
47804;SDS011;33568;45.286;9.900;2022-11-25T16:38:18;67.20;;;59.78;;
47804;SDS011;33568;45.286;9.900;2022-11-25T16:40:45;78.88;;;62.55;;
47804;SDS011;33568;45.286;9.900;2022-11-25T16:43:15;78.28;;;63.95;;
47804;SDS011;33568;45.286;9.900;2022-11-25T16:45:50;86.07;;;67.80;;
47804;SDS011;33568;45.286;9.900;2022-11-25T16:48:19;87.85;;;70.80;;
47804;SDS011;33568;45.286;9.900;2022-11-25T16:50:47;89.88;;;73.60;;
47804;SDS011;33568;45.286;9.900;2022-11-25T16:53:14;89.68;;;75.93;;
47804;SDS011;33568;45.286;9.900;2022-11-25T16:55:42;94.85;;;77.07;;
47804;SDS011;33568;45.286;9.900;2022-11-25T16:58:18;102.30;;;79.45;;
47804;SDS011;33568;45.286;9.900;2022-11-25T17:00:48;92.45;;;76.55;;
47804;SDS011;33568;45.286;9.900;2022-11-25T17:03:20;96.10;;;77.75;;
47804;SDS011;33568;45.286;9.900;2022-11-25T17:05:48;95.97;;;77.03;;
47804;SDS011;33568;45.286;9.900;2022-11-25T17:08:15;88.80;;;73.55;;
47804;SDS011;33568;45.286;9.900;2022-11-25T17:10:42;90.32;;;68.40;;
47804;SDS011;33568;45.286;9.900;2022-11-25T17:13:13;88.63;;;64.30;;
47804;SDS011;33568;45.286;9.900;2022-11-25T17:15:43;80.60;;;63.97;;
47804;SDS011;33568;45.286;9.900;2022-11-25T17:18:11;79.22;;;63.42;;
47804;SDS011;33568;45.286;9.900;2022-11-25T17:20:41;79.95;;;65.32;;
47804;SDS011;33568;45.286;9.900;2022-11-25T17:23:12;80.13;;;65.43;;
47804;SDS011;33568;45.286;9.900;2022-11-25T17:25:43;82.05;;;68.40;;
47804;SDS011;33568;45.286;9.900;2022-11-25T17:28:16;90.05;;;70.63;;
47804;SDS011;33568;45.286;9.900;2022-11-25T17:30:45;88.45;;;70.25;;
47804;SDS011;33568;45.286;9.900;2022-11-25T17:33:17;92.32;;;74.28;;
47804;SDS011;33568;45.286;9.900;2022-11-25T17:35:44;94.93;;;73.22;;
47804;SDS011;33568;45.286;9.900;2022-11-25T17:38:12;89.43;;;72.38;;
47804;SDS011;33568;45.286;9.900;2022-11-25T17:40:41;90.40;;;70.03;;
47804;SDS011;33568;45.286;9.900;2022-11-25T17:43:17;87.80;;;72.28;;
47804;SDS011;33568;45.286;9.900;2022-11-25T17:45:46;82.22;;;68.95;;
47804;SDS011;33568;45.286;9.900;2022-11-25T17:48:16;79.05;;;64.65;;
47804;SDS011;33568;45.286;9.900;2022-11-25T17:50:42;75.38;;;64.15;;
47804;SDS011;33568;45.286;9.900;2022-11-25T17:53:10;75.93;;;62.55;;
47804;SDS011;33568;45.286;9.900;2022-11-25T17:55:36;81.30;;;60.65;;
47804;SDS011;33568;45.286;9.900;2022-11-25T17:58:04;79.70;;;60.70;;
47804;SDS011;33568;45.286;9.900;2022-11-25T18:00:33;73.85;;;58.80;;
47804;SDS011;33568;45.286;9.900;2022-11-25T18:03:00;74.28;;;58.83;;
47804;SDS011;33568;45.286;9.900;2022-11-25T18:05:26;86.97;;;62.63;;
47804;SDS011;33568;45.286;9.900;2022-11-25T18:07:53;82.53;;;62.58;;